createdAt,value
2022-08-23T00:00:13.509Z,99.90
2022-08-23T00:02:43.326Z,99.90
2022-08-23T00:05:13.476Z,99.90
2022-08-23T00:07:46.004Z,99.90
2022-08-23T00:10:17.502Z,99.90
2022-08-23T00:12:47.381Z,99.90
2022-08-23T00:15:18.115Z,99.90
2022-08-23T00:17:46.400Z,99.90
2022-08-23T00:20:18.051Z,99.90
2022-08-23T00:22:46.316Z,99.90
2022-08-23T00:25:15.736Z,99.90
2022-08-23T00:27:45.551Z,99.90
2022-08-23T00:30:15.146Z,99.90
2022-08-23T00:32:43.798Z,99.90
2022-08-23T00:35:22.250Z,99.90
2022-08-23T00:38:33.660Z,99.90
2022-08-23T00:40:47.694Z,99.90
2022-08-23T00:43:36.737Z,99.90
2022-08-23T00:46:30.964Z,99.90
2022-08-23T00:49:01.322Z,99.90
2022-08-23T00:51:52.628Z,99.90
2022-08-23T00:54:27.020Z,99.90
2022-08-23T00:56:59.965Z,99.90
2022-08-23T00:59:29.803Z,99.90
2022-08-23T01:01:58.277Z,99.90
2022-08-23T01:04:28.468Z,99.90
2022-08-23T01:07:08.249Z,99.90
2022-08-23T01:09:41.735Z,99.90
2022-08-23T01:12:16.400Z,99.90
2022-08-23T01:14:56.214Z,99.90
2022-08-23T01:17:29.373Z,99.90
2022-08-23T01:20:00.633Z,99.90
2022-08-23T01:22:34.957Z,99.90
2022-08-23T01:25:09.166Z,99.90
2022-08-23T01:27:38.772Z,99.90
2022-08-23T01:30:10.378Z,99.90
2022-08-23T01:32:48.207Z,99.90
2022-08-23T01:35:18.331Z,99.90
2022-08-23T01:37:46.672Z,99.90
2022-08-23T01:40:16.337Z,99.90
2022-08-23T01:42:44.680Z,99.90
2022-08-23T01:45:17.011Z,99.90
2022-08-23T01:47:45.208Z,99.90
2022-08-23T01:50:14.462Z,99.90
2022-08-23T01:52:46.795Z,99.90
2022-08-23T01:55:17.386Z,99.90
2022-08-23T01:57:50.189Z,99.90
2022-08-23T02:00:19.320Z,99.90
2022-08-23T02:02:48.718Z,99.90
2022-08-23T02:05:21.412Z,99.90
2022-08-23T02:07:50.686Z,99.90
2022-08-23T02:10:21.126Z,99.90
2022-08-23T02:12:50.770Z,99.90
2022-08-23T02:15:19.404Z,99.90
2022-08-23T02:17:47.560Z,99.90
2022-08-23T02:20:15.765Z,99.90
2022-08-23T02:22:44.687Z,99.90
2022-08-23T02:25:12.910Z,99.90
2022-08-23T02:27:43.863Z,99.90
2022-08-23T02:30:13.651Z,99.90
2022-08-23T02:32:42.553Z,99.90
2022-08-23T02:35:10.868Z,99.90
2022-08-23T02:37:39.226Z,99.90
2022-08-23T02:40:08.526Z,99.90
2022-08-23T02:42:36.883Z,99.90
2022-08-23T02:45:08.495Z,99.90
2022-08-23T02:47:37.335Z,99.90
2022-08-23T02:50:05.834Z,99.90
2022-08-23T02:52:34.281Z,99.90
2022-08-23T02:55:02.497Z,99.90
2022-08-23T02:57:31.495Z,99.90
2022-08-23T02:59:59.983Z,99.90
2022-08-23T03:02:29.833Z,99.90
2022-08-23T03:04:58.592Z,99.90
2022-08-23T03:07:27.041Z,99.90
2022-08-23T03:09:55.175Z,99.90
2022-08-23T03:12:24.404Z,99.90
2022-08-23T03:14:52.777Z,99.90
2022-08-23T03:17:21.961Z,99.90
2022-08-23T03:19:54.609Z,99.90
2022-08-23T03:22:23.389Z,99.90
2022-08-23T03:24:52.645Z,99.90
2022-08-23T03:27:20.864Z,99.90
2022-08-23T03:29:48.995Z,99.90
2022-08-23T03:32:17.308Z,99.90
2022-08-23T03:34:45.437Z,99.90
2022-08-23T03:37:15.011Z,99.90
2022-08-23T03:39:43.228Z,99.90
2022-08-23T03:42:12.020Z,99.90
2022-08-23T03:44:40.331Z,99.90
2022-08-23T03:47:09.074Z,99.90
2022-08-23T03:49:37.642Z,99.90
2022-08-23T03:52:07.041Z,99.90
2022-08-23T03:54:36.763Z,99.90
2022-08-23T03:57:09.421Z,99.90
2022-08-23T03:59:40.284Z,99.90
2022-08-23T04:02:13.610Z,99.90
2022-08-23T04:04:42.271Z,99.90
2022-08-23T04:07:10.763Z,99.90
2022-08-23T04:09:40.334Z,99.90
2022-08-23T04:12:12.062Z,99.90
2022-08-23T04:14:46.820Z,99.90
2022-08-23T04:17:15.567Z,99.90
2022-08-23T04:19:44.251Z,99.90
2022-08-23T04:22:15.371Z,99.90
2022-08-23T04:24:46.234Z,99.90
2022-08-23T04:27:14.911Z,99.90
2022-08-23T04:29:43.147Z,99.90
2022-08-23T04:32:12.632Z,99.90
2022-08-23T04:34:42.445Z,99.90
2022-08-23T04:37:14.090Z,99.90
2022-08-23T04:40:01.681Z,99.90
2022-08-23T04:42:29.998Z,99.90
2022-08-23T04:44:59.477Z,99.90
2022-08-23T04:47:27.726Z,99.90
2022-08-23T04:49:55.882Z,99.90
2022-08-23T04:52:24.099Z,99.90
2022-08-23T04:54:53.791Z,99.90
2022-08-23T04:57:21.985Z,99.90
2022-08-23T04:59:50.195Z,99.90
2022-08-23T05:02:20.564Z,99.90
2022-08-23T05:04:48.794Z,99.90
2022-08-23T05:07:16.981Z,99.90
2022-08-23T05:09:45.893Z,99.90
2022-08-23T05:12:15.954Z,99.90
2022-08-23T05:14:47.788Z,99.90
2022-08-23T05:17:16.199Z,99.90
2022-08-23T05:19:47.281Z,99.90
2022-08-23T05:22:15.639Z,99.90
2022-08-23T05:24:43.942Z,99.90
2022-08-23T05:27:13.778Z,99.90
2022-08-23T05:29:43.637Z,99.90
2022-08-23T05:32:11.928Z,99.90
2022-08-23T05:34:40.252Z,99.90
2022-08-23T05:37:08.435Z,99.90
2022-08-23T05:39:37.415Z,99.90
2022-08-23T05:42:06.510Z,99.90
2022-08-23T05:44:36.213Z,99.90
2022-08-23T05:47:11.090Z,99.90
2022-08-23T05:49:40.694Z,99.90
2022-08-23T05:52:11.758Z,99.90
2022-08-23T05:54:42.074Z,99.90
2022-08-23T05:57:11.582Z,99.90
2022-08-23T05:59:41.809Z,99.90
2022-08-23T06:02:12.682Z,99.90
2022-08-23T06:04:41.468Z,99.90
2022-08-23T06:07:11.106Z,99.90
2022-08-23T06:09:39.613Z,99.90
2022-08-23T06:12:08.106Z,99.90
2022-08-23T06:14:36.300Z,99.90
2022-08-23T06:17:05.602Z,99.90
2022-08-23T06:19:35.428Z,99.90
2022-08-23T06:22:03.647Z,99.90
2022-08-23T06:24:32.326Z,99.90
2022-08-23T06:27:00.587Z,99.90
2022-08-23T06:29:28.850Z,99.90
2022-08-23T06:31:57.006Z,99.90
2022-08-23T06:34:29.327Z,99.90
2022-08-23T06:37:00.975Z,99.90
2022-08-23T06:39:33.444Z,99.90
2022-08-23T06:42:34.470Z,99.90
2022-08-23T06:44:56.547Z,99.90
2022-08-23T06:47:24.764Z,99.90
2022-08-23T06:49:57.497Z,99.90
2022-08-23T06:52:28.397Z,99.90
2022-08-23T06:54:57.796Z,99.90
2022-08-23T06:57:26.502Z,99.90
2022-08-23T06:59:55.056Z,99.90
2022-08-23T07:02:23.449Z,99.90
2022-08-23T07:04:54.200Z,99.90
2022-08-23T07:07:22.645Z,99.90
2022-08-23T07:09:52.943Z,99.90
2022-08-23T07:12:22.084Z,99.90
2022-08-23T07:14:52.147Z,99.90
2022-08-23T07:17:20.324Z,99.90
2022-08-23T07:19:48.583Z,99.90
2022-08-23T07:22:16.763Z,99.90
2022-08-23T07:24:45.043Z,99.90
2022-08-23T07:27:14.847Z,99.90
2022-08-23T07:29:43.076Z,99.90
2022-08-23T07:32:11.670Z,99.90
2022-08-23T07:34:39.853Z,99.90
2022-08-23T07:37:15.205Z,99.90
2022-08-23T07:39:44.428Z,99.90
2022-08-23T07:42:23.128Z,99.90
2022-08-23T07:44:53.512Z,99.90
2022-08-23T07:47:22.617Z,99.90
2022-08-23T07:49:51.104Z,99.90
2022-08-23T07:52:22.012Z,99.90
2022-08-23T07:54:50.193Z,99.90
2022-08-23T07:57:20.219Z,99.90
2022-08-23T07:59:49.082Z,99.90
2022-08-23T08:02:17.368Z,99.90
2022-08-23T08:04:45.649Z,99.90
2022-08-23T08:07:21.502Z,99.90
2022-08-23T08:09:49.857Z,99.90
2022-08-23T08:12:19.457Z,99.90
2022-08-23T08:14:48.811Z,99.90
2022-08-23T08:17:18.314Z,99.90
2022-08-23T08:19:46.829Z,99.90
2022-08-23T08:22:15.123Z,99.90
2022-08-23T08:24:44.384Z,99.90
2022-08-23T08:27:12.567Z,99.90
2022-08-23T08:29:43.968Z,99.90
2022-08-23T08:32:13.884Z,99.90
2022-08-23T08:34:43.052Z,99.90
2022-08-23T08:37:11.521Z,99.90
2022-08-23T08:39:45.583Z,99.90
2022-08-23T08:42:43.031Z,99.90
2022-08-23T08:45:17.162Z,99.90
2022-08-23T08:47:49.947Z,99.90
2022-08-23T08:50:24.105Z,99.90
2022-08-23T08:52:56.298Z,99.90
2022-08-23T08:55:39.933Z,99.90
2022-08-23T08:58:13.271Z,99.90
2022-08-23T09:00:43.465Z,99.90
2022-08-23T09:03:15.247Z,99.90
2022-08-23T09:05:53.266Z,99.90
2022-08-23T09:08:44.624Z,99.90
2022-08-23T09:11:22.590Z,99.90
2022-08-23T09:14:12.817Z,99.90
2022-08-23T09:16:51.637Z,99.90
2022-08-23T09:19:21.267Z,99.90
2022-08-23T09:21:58.169Z,99.90
2022-08-23T09:24:27.687Z,99.90
2022-08-23T09:26:56.333Z,99.90
2022-08-23T09:29:28.850Z,99.90
2022-08-23T09:32:02.432Z,99.90
2022-08-23T09:34:43.078Z,99.90
2022-08-23T09:37:17.777Z,99.90
2022-08-23T09:39:49.563Z,99.90
2022-08-23T09:42:30.255Z,99.90
2022-08-23T09:44:58.767Z,99.90
2022-08-23T09:47:36.769Z,99.90
2022-08-23T09:50:23.806Z,99.90
2022-08-23T09:52:57.191Z,99.90
2022-08-23T09:55:33.739Z,99.90
2022-08-23T09:58:23.991Z,99.90
2022-08-23T10:01:13.107Z,99.90
2022-08-23T10:03:43.919Z,99.90
2022-08-23T10:06:15.586Z,99.90
2022-08-23T10:08:54.428Z,99.90
2022-08-23T10:11:25.780Z,99.90
2022-08-23T10:13:54.797Z,99.90
2022-08-23T10:16:34.185Z,99.90
2022-08-23T10:19:13.429Z,99.90
2022-08-23T10:21:47.480Z,99.90
2022-08-23T10:24:22.670Z,99.90
2022-08-23T10:27:26.034Z,99.90
2022-08-23T10:30:03.239Z,99.90
2022-08-23T10:32:45.681Z,99.90
2022-08-23T10:35:29.355Z,99.90
2022-08-23T10:38:12.979Z,99.90
2022-08-23T10:40:47.097Z,99.90
2022-08-23T10:43:22.684Z,99.90
2022-08-23T10:45:51.415Z,99.90
2022-08-23T10:48:28.670Z,99.90
2022-08-23T10:51:01.969Z,99.90
2022-08-23T10:53:46.093Z,99.90
2022-08-23T10:56:19.133Z,99.90
2022-08-23T10:58:52.015Z,99.90
2022-08-23T11:01:22.505Z,99.90
2022-08-23T11:04:01.134Z,99.90
2022-08-23T11:06:45.582Z,99.90
2022-08-23T11:09:46.714Z,99.90
2022-08-23T11:12:32.008Z,99.90
2022-08-23T11:15:13.776Z,99.90
2022-08-23T11:17:56.328Z,99.90
2022-08-23T11:21:10.605Z,99.90
2022-08-23T11:24:22.377Z,99.90
2022-08-23T11:27:07.875Z,99.90
2022-08-23T11:29:41.392Z,99.90
2022-08-23T11:32:31.521Z,99.90
2022-08-23T11:35:08.958Z,99.90
2022-08-23T11:37:55.118Z,99.90
2022-08-23T11:40:57.777Z,99.90
2022-08-23T11:43:35.167Z,99.90
2022-08-23T11:46:49.364Z,99.90
2022-08-23T11:50:00.334Z,99.90
2022-08-23T11:52:48.311Z,99.90
2022-08-23T11:55:29.449Z,99.90
2022-08-23T11:58:23.192Z,99.90
2022-08-23T12:01:06.368Z,99.90
2022-08-23T12:03:53.865Z,99.90
2022-08-23T12:06:42.269Z,99.90
2022-08-23T12:09:43.607Z,99.90
2022-08-23T12:12:25.147Z,99.90
2022-08-23T12:14:56.832Z,99.90
2022-08-23T12:18:07.227Z,99.90
2022-08-23T12:20:36.463Z,99.90
2022-08-23T12:23:21.054Z,99.90
2022-08-23T12:26:01.211Z,99.90
2022-08-23T12:28:39.587Z,99.90
2022-08-23T12:31:19.445Z,99.90
2022-08-23T12:34:09.658Z,99.90
2022-08-23T12:36:45.107Z,99.90
2022-08-23T12:39:24.669Z,99.90
2022-08-23T12:41:56.590Z,99.70
2022-08-23T12:44:27.923Z,97.50
2022-08-23T12:46:56.666Z,97.70
2022-08-23T12:49:30.292Z,95.70
2022-08-23T12:52:01.479Z,95.30
2022-08-23T12:54:39.207Z,95.90
2022-08-23T12:57:11.923Z,94.90
2022-08-23T12:59:47.497Z,93.60
2022-08-23T13:02:24.068Z,94.50
2022-08-23T13:04:54.870Z,94.70
2022-08-23T13:07:26.599Z,95.40
2022-08-23T13:09:56.612Z,95.60
2022-08-23T13:12:25.169Z,95.50
2022-08-23T13:14:54.967Z,94.60
2022-08-23T13:17:33.035Z,94.80
2022-08-23T13:20:23.920Z,94.30
2022-08-23T13:23:02.862Z,94.20
2022-08-23T13:25:34.652Z,93.30
2022-08-23T13:28:05.451Z,93.70
2022-08-23T13:30:36.230Z,94.10
2022-08-23T13:33:22.120Z,94.10
2022-08-23T13:35:53.883Z,94.00
2022-08-23T13:38:30.771Z,93.10
2022-08-23T13:41:03.773Z,91.70
2022-08-23T13:43:36.430Z,91.60
2022-08-23T13:46:14.484Z,92.30
2022-08-23T13:48:48.972Z,93.10
2022-08-23T13:51:38.841Z,91.40
2022-08-23T13:54:10.689Z,91.00
2022-08-23T13:56:45.183Z,91.60
2022-08-23T13:59:21.895Z,92.40
2022-08-23T14:01:51.210Z,92.50
2022-08-23T14:04:19.372Z,90.40
2022-08-23T14:06:49.764Z,89.90
2022-08-23T14:09:18.687Z,88.70
2022-08-23T14:11:50.086Z,89.70
2022-08-23T14:14:18.338Z,90.50
2022-08-23T14:16:46.559Z,88.60
2022-08-23T14:19:16.593Z,87.10
2022-08-23T14:22:05.705Z,87.50
2022-08-23T14:24:34.053Z,87.70
2022-08-23T14:27:02.741Z,88.80
2022-08-23T14:29:31.410Z,88.10
2022-08-23T14:34:57.317Z,88.80
2022-08-23T14:40:16.355Z,90.30
2022-08-23T14:42:45.344Z,89.80
2022-08-23T14:45:16.564Z,90.00
2022-08-23T14:47:45.273Z,89.20
2022-08-23T14:50:15.770Z,90.40
2022-08-23T14:52:47.486Z,90.40
2022-08-23T14:55:16.234Z,90.40
2022-08-23T14:57:44.720Z,91.20
2022-08-23T15:00:31.597Z,91.00
2022-08-23T15:02:59.891Z,91.30
2022-08-23T15:05:28.166Z,90.70
2022-08-23T15:07:59.913Z,90.50
2022-08-23T15:13:41.614Z,90.00
2022-08-23T15:16:44.392Z,90.60
2022-08-23T15:19:13.956Z,90.00
2022-08-23T15:21:42.658Z,89.10
2022-08-23T15:24:12.319Z,89.60
2022-08-23T15:26:40.609Z,90.20
2022-08-23T15:29:09.271Z,90.80
2022-08-23T15:31:37.541Z,90.90
2022-08-23T15:34:05.928Z,91.80
2022-08-23T15:36:43.018Z,92.80
2022-08-23T15:39:14.761Z,92.90
2022-08-23T15:41:43.135Z,93.30
2022-08-23T15:44:11.502Z,93.20
2022-08-23T15:46:40.209Z,93.60
2022-08-23T15:49:14.742Z,93.80
2022-08-23T15:51:43.187Z,93.60
2022-08-23T15:54:12.451Z,93.80
2022-08-23T15:56:48.177Z,94.10
2022-08-23T15:59:19.765Z,94.30
2022-08-23T16:01:48.216Z,94.30
2022-08-23T16:04:16.578Z,99.90
2022-08-23T16:06:45.212Z,99.90
2022-08-23T16:09:20.185Z,99.90
2022-08-23T16:11:49.984Z,99.90
2022-08-23T16:14:18.464Z,99.90
2022-08-23T16:16:46.961Z,99.90
2022-08-23T16:19:16.781Z,99.90
2022-08-23T16:21:45.983Z,99.90
2022-08-23T16:24:14.293Z,99.90
2022-08-23T16:26:45.568Z,99.90
2022-08-23T16:29:17.504Z,99.90
2022-08-23T16:31:46.721Z,99.90
2022-08-23T16:34:17.146Z,99.90
2022-08-23T16:36:48.479Z,99.90
2022-08-23T16:39:19.048Z,99.90
2022-08-23T16:41:47.510Z,99.90
2022-08-23T16:44:17.132Z,99.90
2022-08-23T16:46:45.796Z,99.90
2022-08-23T16:49:15.327Z,99.90
2022-08-23T16:51:45.694Z,99.90
2022-08-23T16:54:14.270Z,99.90
2022-08-23T16:56:43.715Z,99.90
2022-08-23T16:59:13.712Z,99.90
2022-08-23T17:01:49.230Z,99.90
2022-08-23T17:04:18.487Z,99.90
2022-08-23T17:06:47.629Z,99.90
2022-08-23T17:09:16.068Z,99.90
2022-08-23T17:11:45.645Z,99.90
2022-08-23T17:14:14.504Z,99.90
2022-08-23T17:16:44.039Z,99.90
2022-08-23T17:19:15.705Z,99.90
2022-08-23T17:21:44.884Z,99.90
2022-08-23T17:24:13.140Z,99.90
2022-08-23T17:26:41.412Z,99.90
2022-08-23T17:29:10.240Z,99.90
2022-08-23T17:31:38.605Z,99.90
2022-08-23T17:34:06.958Z,99.90
2022-08-23T17:36:39.581Z,99.90
2022-08-23T17:39:11.381Z,99.90
2022-08-23T17:41:44.538Z,99.90
2022-08-23T17:44:14.074Z,99.90
2022-08-23T17:46:45.146Z,99.90
2022-08-23T17:49:14.565Z,99.90
2022-08-23T17:51:44.283Z,99.90
2022-08-23T17:54:16.069Z,99.90
2022-08-23T17:56:50.451Z,99.90
2022-08-23T17:59:20.081Z,99.90
2022-08-23T18:01:48.495Z,99.90
2022-08-23T18:04:16.965Z,99.90
2022-08-23T18:06:47.345Z,99.90
2022-08-23T18:09:16.579Z,99.90
2022-08-23T18:11:45.228Z,99.90
2022-08-23T18:14:13.431Z,99.90
2022-08-23T18:16:44.056Z,99.90
2022-08-23T18:19:14.388Z,99.90
2022-08-23T18:21:44.175Z,99.90
2022-08-23T18:24:13.913Z,99.90
2022-08-23T18:27:00.759Z,99.90
2022-08-23T18:29:29.876Z,99.90
2022-08-23T18:31:58.764Z,99.90
2022-08-23T18:34:27.849Z,99.90
2022-08-23T18:36:56.151Z,99.90
2022-08-23T18:39:31.553Z,99.90
2022-08-23T18:42:01.296Z,99.90
2022-08-23T18:44:30.192Z,99.90
2022-08-23T18:46:59.468Z,99.90
2022-08-23T18:49:27.729Z,99.90
2022-08-23T18:51:56.599Z,99.90
2022-08-23T18:54:28.088Z,99.90
2022-08-23T18:56:59.081Z,99.90
2022-08-23T18:59:27.740Z,99.90
2022-08-23T19:01:56.403Z,99.90
2022-08-23T19:04:24.884Z,99.90
2022-08-23T19:06:54.315Z,99.90
2022-08-23T19:09:23.130Z,99.90
2022-08-23T19:11:52.729Z,99.90
2022-08-23T19:14:20.951Z,99.90
2022-08-23T19:16:49.355Z,99.90
2022-08-23T19:19:18.804Z,99.90
2022-08-23T19:21:47.175Z,99.90
2022-08-23T19:24:15.460Z,99.90
2022-08-23T19:26:47.572Z,99.90
2022-08-23T19:29:18.758Z,99.90
2022-08-23T19:31:48.280Z,99.90
2022-08-23T19:34:17.385Z,99.90
2022-08-23T19:36:51.761Z,99.90
2022-08-23T19:39:27.606Z,99.90
2022-08-23T19:41:55.935Z,99.90
2022-08-23T19:44:26.026Z,99.90
2022-08-23T19:46:56.245Z,99.90
2022-08-23T19:49:24.593Z,99.90
2022-08-23T19:51:52.886Z,99.90
2022-08-23T19:54:21.317Z,99.90
2022-08-23T19:56:54.833Z,99.90
2022-08-23T19:59:26.840Z,99.90
2022-08-23T20:01:56.938Z,99.90
2022-08-23T20:04:26.427Z,99.90
2022-08-23T20:06:54.843Z,99.90
2022-08-23T20:09:24.114Z,99.90
2022-08-23T20:11:54.042Z,99.90
